Terminal Aerodrome Forecast
Issued by NWS Louisville, KY

Home | Current Version | Previous Version | Text Only | Print | Product List | Glossary On
Versions: 1 2 3 4 5 6 7 8 9 10 11 12 13 14 15 16
000
FTUS43 KLMK 042324
TAFBWG
TAF
KBWG 042324Z 0500/0524 VRB03KT P6SM FEW050
     FM050700 00000KT 5SM BR SKC
      TEMPO 0509/0512 1SM BR SCT005
     FM051400 10004KT P6SM FEW050=

USA.gov is the U.S. government's official web portal to all federal, state and local government web resources and services.